sensor_id;sensor_type;location;lat;lon;timestamp;temperature;humidity
1680;DHT22;838;51.794;12.258;2023-08-17T00:00:17;23.00;43.30
1680;DHT22;838;51.794;12.258;2023-08-17T00:02:44;23.00;44.00
1680;DHT22;838;51.794;12.258;2023-08-17T00:05:09;22.90;45.70
1680;DHT22;838;51.794;12.258;2023-08-17T00:07:35;22.70;48.10
1680;DHT22;838;51.794;12.258;2023-08-17T00:10:02;22.60;49.50
1680;DHT22;838;51.794;12.258;2023-08-17T00:12:28;22.40;51.20
1680;DHT22;838;51.794;12.258;2023-08-17T00:14:54;22.40;52.20
1680;DHT22;838;51.794;12.258;2023-08-17T00:17:20;22.40;52.40
1680;DHT22;838;51.794;12.258;2023-08-17T00:19:46;22.30;52.80
1680;DHT22;838;51.794;12.258;2023-08-17T00:22:12;22.40;53.80
1680;DHT22;838;51.794;12.258;2023-08-17T00:24:38;22.50;51.50
1680;DHT22;838;51.794;12.258;2023-08-17T00:27:06;22.60;50.00
1680;DHT22;838;51.794;12.258;2023-08-17T00:29:32;22.50;51.20
1680;DHT22;838;51.794;12.258;2023-08-17T00:31:57;22.50;51.70
1680;DHT22;838;51.794;12.258;2023-08-17T00:34:23;22.60;50.60
1680;DHT22;838;51.794;12.258;2023-08-17T00:36:49;22.50;50.50
1680;DHT22;838;51.794;12.258;2023-08-17T00:39:14;22.40;51.80
1680;DHT22;838;51.794;12.258;2023-08-17T00:41:40;22.40;53.80
1680;DHT22;838;51.794;12.258;2023-08-17T00:44:06;22.50;52.00
1680;DHT22;838;51.794;12.258;2023-08-17T00:46:32;22.70;49.40
1680;DHT22;838;51.794;12.258;2023-08-17T00:48:58;22.80;47.40
1680;DHT22;838;51.794;12.258;2023-08-17T00:51:25;22.70;48.60
1680;DHT22;838;51.794;12.258;2023-08-17T00:53:53;22.90;47.50
1680;DHT22;838;51.794;12.258;2023-08-17T00:56:19;22.90;45.80
1680;DHT22;838;51.794;12.258;2023-08-17T00:58:44;22.70;48.50
1680;DHT22;838;51.794;12.258;2023-08-17T01:01:10;22.80;47.10
1680;DHT22;838;51.794;12.258;2023-08-17T01:03:36;22.80;47.20
1680;DHT22;838;51.794;12.258;2023-08-17T01:06:03;22.70;48.10
1680;DHT22;838;51.794;12.258;2023-08-17T01:08:29;22.70;46.20
1680;DHT22;838;51.794;12.258;2023-08-17T01:16:45;22.40;49.90
1680;DHT22;838;51.794;12.258;2023-08-17T01:19:27;22.50;49.00
1680;DHT22;838;51.794;12.258;2023-08-17T01:22:00;22.50;46.70
1680;DHT22;838;51.794;12.258;2023-08-17T01:24:26;22.40;48.40
1680;DHT22;838;51.794;12.258;2023-08-17T01:26:52;22.30;50.30
1680;DHT22;838;51.794;12.258;2023-08-17T01:29:18;22.30;49.70
1680;DHT22;838;51.794;12.258;2023-08-17T01:31:59;22.20;53.30
1680;DHT22;838;51.794;12.258;2023-08-17T01:34:29;22.20;51.00
1680;DHT22;838;51.794;12.258;2023-08-17T01:36:59;22.10;52.90
1680;DHT22;838;51.794;12.258;2023-08-17T01:39:30;22.00;52.80
1680;DHT22;838;51.794;12.258;2023-08-17T01:41:58;22.10;52.70
1680;DHT22;838;51.794;12.258;2023-08-17T01:44:25;22.20;51.90
1680;DHT22;838;51.794;12.258;2023-08-17T01:46:53;22.10;51.80
1680;DHT22;838;51.794;12.258;2023-08-17T01:49:18;22.20;51.60
1680;DHT22;838;51.794;12.258;2023-08-17T01:51:44;22.30;50.30
1680;DHT22;838;51.794;12.258;2023-08-17T01:54:10;22.40;48.90
1680;DHT22;838;51.794;12.258;2023-08-17T01:56:35;22.40;48.70
1680;DHT22;838;51.794;12.258;2023-08-17T01:59:01;22.50;47.80
1680;DHT22;838;51.794;12.258;2023-08-17T02:01:27;22.40;48.80
1680;DHT22;838;51.794;12.258;2023-08-17T02:03:53;22.40;48.50
1680;DHT22;838;51.794;12.258;2023-08-17T02:06:19;22.20;49.20
1680;DHT22;838;51.794;12.258;2023-08-17T02:08:45;22.10;50.10
1680;DHT22;838;51.794;12.258;2023-08-17T02:11:11;22.00;50.00
1680;DHT22;838;51.794;12.258;2023-08-17T02:13:37;21.80;52.70
1680;DHT22;838;51.794;12.258;2023-08-17T02:16:04;21.90;52.00
1680;DHT22;838;51.794;12.258;2023-08-17T02:18:30;21.90;52.80
1680;DHT22;838;51.794;12.258;2023-08-17T02:20:57;21.90;51.00
1680;DHT22;838;51.794;12.258;2023-08-17T02:23:23;21.90;52.40
1680;DHT22;838;51.794;12.258;2023-08-17T02:25:48;21.90;52.40
1680;DHT22;838;51.794;12.258;2023-08-17T02:28:14;21.90;52.60
1680;DHT22;838;51.794;12.258;2023-08-17T02:30:40;21.90;51.10
1680;DHT22;838;51.794;12.258;2023-08-17T02:33:06;21.90;53.50
1680;DHT22;838;51.794;12.258;2023-08-17T02:35:32;21.70;53.80
1680;DHT22;838;51.794;12.258;2023-08-17T02:37:58;21.80;54.00
1680;DHT22;838;51.794;12.258;2023-08-17T02:40:24;22.00;50.70
1680;DHT22;838;51.794;12.258;2023-08-17T02:42:49;22.10;49.00
1680;DHT22;838;51.794;12.258;2023-08-17T02:45:15;22.10;50.10
1680;DHT22;838;51.794;12.258;2023-08-17T02:47:41;21.90;51.30
1680;DHT22;838;51.794;12.258;2023-08-17T02:50:07;21.80;54.30
1680;DHT22;838;51.794;12.258;2023-08-17T02:52:33;21.80;54.90
1680;DHT22;838;51.794;12.258;2023-08-17T02:54:59;21.80;56.20
1680;DHT22;838;51.794;12.258;2023-08-17T02:57:25;21.90;56.50
1680;DHT22;838;51.794;12.258;2023-08-17T02:59:50;22.20;53.00
1680;DHT22;838;51.794;12.258;2023-08-17T03:02:16;22.40;50.40
1680;DHT22;838;51.794;12.258;2023-08-17T03:04:42;22.60;52.50
1680;DHT22;838;51.794;12.258;2023-08-17T03:07:07;22.60;55.00
1680;DHT22;838;51.794;12.258;2023-08-17T03:09:33;22.60;53.80
1680;DHT22;838;51.794;12.258;2023-08-17T03:11:59;22.50;55.10
1680;DHT22;838;51.794;12.258;2023-08-17T03:14:24;22.50;57.20
1680;DHT22;838;51.794;12.258;2023-08-17T03:16:50;22.30;62.50
1680;DHT22;838;51.794;12.258;2023-08-17T03:19:16;21.80;71.50
1680;DHT22;838;51.794;12.258;2023-08-17T03:21:43;21.70;74.30
1680;DHT22;838;51.794;12.258;2023-08-17T03:24:09;22.00;71.00
1680;DHT22;838;51.794;12.258;2023-08-17T03:26:34;22.00;71.40
1680;DHT22;838;51.794;12.258;2023-08-17T03:29:00;22.20;70.70
1680;DHT22;838;51.794;12.258;2023-08-17T03:31:26;22.20;69.10
1680;DHT22;838;51.794;12.258;2023-08-17T03:33:51;22.00;70.70
1680;DHT22;838;51.794;12.258;2023-08-17T03:36:17;22.00;69.60
1680;DHT22;838;51.794;12.258;2023-08-17T03:38:43;22.10;69.10
1680;DHT22;838;51.794;12.258;2023-08-17T03:41:09;22.00;70.80
1680;DHT22;838;51.794;12.258;2023-08-17T03:43:34;21.90;71.00
1680;DHT22;838;51.794;12.258;2023-08-17T03:46:01;22.00;71.80
1680;DHT22;838;51.794;12.258;2023-08-17T03:48:26;21.90;72.70
1680;DHT22;838;51.794;12.258;2023-08-17T03:50:54;21.70;73.40
1680;DHT22;838;51.794;12.258;2023-08-17T03:53:19;21.60;75.50
1680;DHT22;838;51.794;12.258;2023-08-17T03:55:49;21.50;76.20
1680;DHT22;838;51.794;12.258;2023-08-17T03:58:16;21.60;76.90
1680;DHT22;838;51.794;12.258;2023-08-17T04:00:42;21.60;75.70
1680;DHT22;838;51.794;12.258;2023-08-17T04:03:13;21.50;76.20
1680;DHT22;838;51.794;12.258;2023-08-17T04:05:39;21.50;76.40
1680;DHT22;838;51.794;12.258;2023-08-17T04:08:05;21.40;76.70
1680;DHT22;838;51.794;12.258;2023-08-17T04:10:31;21.30;79.40
1680;DHT22;838;51.794;12.258;2023-08-17T04:12:57;21.20;80.80
1680;DHT22;838;51.794;12.258;2023-08-17T04:15:22;21.00;82.00
1680;DHT22;838;51.794;12.258;2023-08-17T04:17:48;21.00;83.00
1680;DHT22;838;51.794;12.258;2023-08-17T04:20:14;20.90;83.20
1680;DHT22;838;51.794;12.258;2023-08-17T04:22:40;20.80;84.90
1680;DHT22;838;51.794;12.258;2023-08-17T04:25:05;20.80;85.90
1680;DHT22;838;51.794;12.258;2023-08-17T04:27:32;20.80;85.90
1680;DHT22;838;51.794;12.258;2023-08-17T04:29:59;20.80;86.70
1680;DHT22;838;51.794;12.258;2023-08-17T04:32:25;20.70;88.40
1680;DHT22;838;51.794;12.258;2023-08-17T04:34:51;20.60;88.40
1680;DHT22;838;51.794;12.258;2023-08-17T04:37:17;20.60;90.40
1680;DHT22;838;51.794;12.258;2023-08-17T04:39:42;20.50;90.90
1680;DHT22;838;51.794;12.258;2023-08-17T04:42:09;20.50;91.50
1680;DHT22;838;51.794;12.258;2023-08-17T04:44:35;20.50;92.10
1680;DHT22;838;51.794;12.258;2023-08-17T04:47:01;20.60;91.50
1680;DHT22;838;51.794;12.258;2023-08-17T04:49:27;20.60;91.60
1680;DHT22;838;51.794;12.258;2023-08-17T04:51:53;20.60;91.90
1680;DHT22;838;51.794;12.258;2023-08-17T04:54:18;20.70;91.50
1680;DHT22;838;51.794;12.258;2023-08-17T04:56:44;20.70;91.30
1680;DHT22;838;51.794;12.258;2023-08-17T04:59:11;20.60;91.70
1680;DHT22;838;51.794;12.258;2023-08-17T05:01:37;20.50;92.20
1680;DHT22;838;51.794;12.258;2023-08-17T05:04:03;20.40;92.80
1680;DHT22;838;51.794;12.258;2023-08-17T05:06:29;20.30;93.20
1680;DHT22;838;51.794;12.258;2023-08-17T05:08:55;20.30;93.70
1680;DHT22;838;51.794;12.258;2023-08-17T05:11:21;20.20;94.20
1680;DHT22;838;51.794;12.258;2023-08-17T05:13:47;20.30;94.30
1680;DHT22;838;51.794;12.258;2023-08-17T05:16:13;20.50;94.10
1680;DHT22;838;51.794;12.258;2023-08-17T05:18:38;20.50;93.50
1680;DHT22;838;51.794;12.258;2023-08-17T05:21:04;20.50;93.60
1680;DHT22;838;51.794;12.258;2023-08-17T05:23:30;20.60;93.20
1680;DHT22;838;51.794;12.258;2023-08-17T05:25:55;20.60;93.20
1680;DHT22;838;51.794;12.258;2023-08-17T05:28:21;20.70;93.20
1680;DHT22;838;51.794;12.258;2023-08-17T05:30:48;20.70;92.40
1680;DHT22;838;51.794;12.258;2023-08-17T05:33:14;20.60;92.80
1680;DHT22;838;51.794;12.258;2023-08-17T05:35:39;20.50;93.00
1680;DHT22;838;51.794;12.258;2023-08-17T05:38:05;20.40;93.00
1680;DHT22;838;51.794;12.258;2023-08-17T05:40:32;20.40;93.10
1680;DHT22;838;51.794;12.258;2023-08-17T05:42:57;20.30;93.90
1680;DHT22;838;51.794;12.258;2023-08-17T05:45:23;20.30;94.10
1680;DHT22;838;51.794;12.258;2023-08-17T05:47:49;20.30;94.30
1680;DHT22;838;51.794;12.258;2023-08-17T05:50:14;20.20;94.50
1680;DHT22;838;51.794;12.258;2023-08-17T05:52:41;20.30;94.90
1680;DHT22;838;51.794;12.258;2023-08-17T05:55:07;20.40;94.60
1680;DHT22;838;51.794;12.258;2023-08-17T05:57:33;20.30;94.50
1680;DHT22;838;51.794;12.258;2023-08-17T05:59:59;20.30;94.50
1680;DHT22;838;51.794;12.258;2023-08-17T06:02:25;20.30;95.00
1680;DHT22;838;51.794;12.258;2023-08-17T06:04:50;20.40;94.90
1680;DHT22;838;51.794;12.258;2023-08-17T06:07:16;20.40;94.10
1680;DHT22;838;51.794;12.258;2023-08-17T06:09:42;20.40;94.50
1680;DHT22;838;51.794;12.258;2023-08-17T06:12:08;20.60;94.60
1680;DHT22;838;51.794;12.258;2023-08-17T06:14:33;20.70;94.00
1680;DHT22;838;51.794;12.258;2023-08-17T06:16:59;20.70;93.20
1680;DHT22;838;51.794;12.258;2023-08-17T06:19:25;20.60;92.90
1680;DHT22;838;51.794;12.258;2023-08-17T06:21:51;20.60;93.60
1680;DHT22;838;51.794;12.258;2023-08-17T06:24:17;20.70;93.70
1680;DHT22;838;51.794;12.258;2023-08-17T06:26:44;20.70;93.60
1680;DHT22;838;51.794;12.258;2023-08-17T06:29:09;20.80;93.40
1680;DHT22;838;51.794;12.258;2023-08-17T06:31:35;20.70;92.60
1680;DHT22;838;51.794;12.258;2023-08-17T06:34:01;20.70;93.20
1680;DHT22;838;51.794;12.258;2023-08-17T06:36:30;20.80;92.70
1680;DHT22;838;51.794;12.258;2023-08-17T06:38:56;20.80;92.70
1680;DHT22;838;51.794;12.258;2023-08-17T06:41:22;20.70;92.30
1680;DHT22;838;51.794;12.258;2023-08-17T06:43:49;20.80;93.00
1680;DHT22;838;51.794;12.258;2023-08-17T06:46:15;20.70;92.90
1680;DHT22;838;51.794;12.258;2023-08-17T06:48:40;20.40;93.60
1680;DHT22;838;51.794;12.258;2023-08-17T06:51:06;20.30;94.20
1680;DHT22;838;51.794;12.258;2023-08-17T06:53:32;20.10;95.00
1680;DHT22;838;51.794;12.258;2023-08-17T06:55:57;20.00;95.50
1680;DHT22;838;51.794;12.258;2023-08-17T06:58:23;20.00;95.90
1680;DHT22;838;51.794;12.258;2023-08-17T07:00:49;20.00;96.20
1680;DHT22;838;51.794;12.258;2023-08-17T07:03:14;20.10;96.60
1680;DHT22;838;51.794;12.258;2023-08-17T07:05:41;20.30;96.50
1680;DHT22;838;51.794;12.258;2023-08-17T07:08:07;20.50;96.50
1680;DHT22;838;51.794;12.258;2023-08-17T07:10:33;20.80;96.10
1680;DHT22;838;51.794;12.258;2023-08-17T07:12:59;20.90;95.20
1680;DHT22;838;51.794;12.258;2023-08-17T07:15:31;20.90;94.80
1680;DHT22;838;51.794;12.258;2023-08-17T07:17:57;21.30;94.60
1680;DHT22;838;51.794;12.258;2023-08-17T07:20:23;21.40;93.20
1680;DHT22;838;51.794;12.258;2023-08-17T07:22:48;21.50;92.90
1680;DHT22;838;51.794;12.258;2023-08-17T07:25:14;21.50;92.50
1680;DHT22;838;51.794;12.258;2023-08-17T07:27:41;21.20;92.20
1680;DHT22;838;51.794;12.258;2023-08-17T07:30:07;21.20;92.40
1680;DHT22;838;51.794;12.258;2023-08-17T07:32:34;21.30;93.30
1680;DHT22;838;51.794;12.258;2023-08-17T07:35:00;21.30;93.50
1680;DHT22;838;51.794;12.258;2023-08-17T07:37:25;21.30;92.50
1680;DHT22;838;51.794;12.258;2023-08-17T07:39:58;21.50;93.20
1680;DHT22;838;51.794;12.258;2023-08-17T07:42:24;21.50;93.30
1680;DHT22;838;51.794;12.258;2023-08-17T07:44:49;21.60;93.20
1680;DHT22;838;51.794;12.258;2023-08-17T07:47:15;22.00;93.20
1680;DHT22;838;51.794;12.258;2023-08-17T07:49:41;22.10;92.70
1680;DHT22;838;51.794;12.258;2023-08-17T07:52:07;22.00;91.60
1680;DHT22;838;51.794;12.258;2023-08-17T07:54:32;21.60;92.50
1680;DHT22;838;51.794;12.258;2023-08-17T07:56:59;21.70;93.70
1680;DHT22;838;51.794;12.258;2023-08-17T07:59:24;21.80;94.00
1680;DHT22;838;51.794;12.258;2023-08-17T08:01:50;21.90;93.70
1680;DHT22;838;51.794;12.258;2023-08-17T08:04:16;22.00;92.60
1680;DHT22;838;51.794;12.258;2023-08-17T08:06:42;21.90;92.10
1680;DHT22;838;51.794;12.258;2023-08-17T08:09:08;22.00;92.60
1680;DHT22;838;51.794;12.258;2023-08-17T08:11:34;22.10;92.80
1680;DHT22;838;51.794;12.258;2023-08-17T08:14:00;22.40;91.70
1680;DHT22;838;51.794;12.258;2023-08-17T08:16:26;22.40;91.70
1680;DHT22;838;51.794;12.258;2023-08-17T08:18:52;22.50;91.50
1680;DHT22;838;51.794;12.258;2023-08-17T08:21:18;22.60;91.10
1680;DHT22;838;51.794;12.258;2023-08-17T08:23:43;22.80;90.40
1680;DHT22;838;51.794;12.258;2023-08-17T08:26:09;22.80;89.10
1680;DHT22;838;51.794;12.258;2023-08-17T08:28:35;23.00;88.90
1680;DHT22;838;51.794;12.258;2023-08-17T08:31:03;22.90;87.70
1680;DHT22;838;51.794;12.258;2023-08-17T08:33:30;23.00;90.70
1680;DHT22;838;51.794;12.258;2023-08-17T08:35:56;23.00;84.10
1680;DHT22;838;51.794;12.258;2023-08-17T08:38:21;22.80;85.70
1680;DHT22;838;51.794;12.258;2023-08-17T08:40:48;22.60;87.70
1680;DHT22;838;51.794;12.258;2023-08-17T08:43:14;22.70;87.30
1680;DHT22;838;51.794;12.258;2023-08-17T08:45:42;23.00;89.00
1680;DHT22;838;51.794;12.258;2023-08-17T08:48:11;23.20;86.30
1680;DHT22;838;51.794;12.258;2023-08-17T08:50:39;23.50;83.70
1680;DHT22;838;51.794;12.258;2023-08-17T08:53:11;23.70;82.80
1680;DHT22;838;51.794;12.258;2023-08-17T08:55:45;24.20;77.00
1680;DHT22;838;51.794;12.258;2023-08-17T08:58:14;24.40;76.30
1680;DHT22;838;51.794;12.258;2023-08-17T09:00:41;25.20;73.30
1680;DHT22;838;51.794;12.258;2023-08-17T09:03:07;25.70;64.20
1680;DHT22;838;51.794;12.258;2023-08-17T09:05:35;25.80;64.40
1680;DHT22;838;51.794;12.258;2023-08-17T09:08:02;25.60;60.00
1680;DHT22;838;51.794;12.258;2023-08-17T09:10:28;26.10;53.50
1680;DHT22;838;51.794;12.258;2023-08-17T09:12:54;26.00;58.60
1680;DHT22;838;51.794;12.258;2023-08-17T09:15:20;26.90;51.30
1680;DHT22;838;51.794;12.258;2023-08-17T09:17:45;27.40;38.40
1680;DHT22;838;51.794;12.258;2023-08-17T09:23:03;29.00;27.80
1680;DHT22;838;51.794;12.258;2023-08-17T09:25:31;28.20;25.20
1680;DHT22;838;51.794;12.258;2023-08-17T09:27:59;28.10;28.10
1680;DHT22;838;51.794;12.258;2023-08-17T09:30:33;28.20;25.00
1680;DHT22;838;51.794;12.258;2023-08-17T09:33:02;27.80;26.30
1680;DHT22;838;51.794;12.258;2023-08-17T09:35:31;28.10;19.70
1680;DHT22;838;51.794;12.258;2023-08-17T09:37:57;28.60;23.00
1680;DHT22;838;51.794;12.258;2023-08-17T09:40:25;28.80;18.70
1680;DHT22;838;51.794;12.258;2023-08-17T09:42:52;28.80;16.10
1680;DHT22;838;51.794;12.258;2023-08-17T09:45:19;28.50;17.40
1680;DHT22;838;51.794;12.258;2023-08-17T09:47:46;28.10;17.70
1680;DHT22;838;51.794;12.258;2023-08-17T09:50:11;27.80;21.00
1680;DHT22;838;51.794;12.258;2023-08-17T09:52:39;27.90;16.70
1680;DHT22;838;51.794;12.258;2023-08-17T09:55:06;28.20;18.60
1680;DHT22;838;51.794;12.258;2023-08-17T09:57:32;28.40;14.80
1680;DHT22;838;51.794;12.258;2023-08-17T09:59:59;28.20;16.90
1680;DHT22;838;51.794;12.258;2023-08-17T10:02:24;27.70;17.90
1680;DHT22;838;51.794;12.258;2023-08-17T10:04:52;27.10;16.90
1680;DHT22;838;51.794;12.258;2023-08-17T10:07:19;26.40;27.30
1680;DHT22;838;51.794;12.258;2023-08-17T10:09:54;25.90;28.60
1680;DHT22;838;51.794;12.258;2023-08-17T10:12:25;25.70;36.30
1680;DHT22;838;51.794;12.258;2023-08-17T10:15:00;25.30;34.50
1680;DHT22;838;51.794;12.258;2023-08-17T10:17:33;25.30;40.10
1680;DHT22;838;51.794;12.258;2023-08-17T10:20:00;25.30;39.70
1680;DHT22;838;51.794;12.258;2023-08-17T10:22:54;25.30;41.40
1680;DHT22;838;51.794;12.258;2023-08-17T10:25:22;25.50;37.90
1680;DHT22;838;51.794;12.258;2023-08-17T10:27:49;26.00;31.80
1680;DHT22;838;51.794;12.258;2023-08-17T10:30:17;26.70;26.80
1680;DHT22;838;51.794;12.258;2023-08-17T10:32:43;27.10;23.30
1680;DHT22;838;51.794;12.258;2023-08-17T10:35:13;27.40;23.50
1680;DHT22;838;51.794;12.258;2023-08-17T10:37:40;27.70;21.30
1680;DHT22;838;51.794;12.258;2023-08-17T10:40:06;27.60;23.00
1680;DHT22;838;51.794;12.258;2023-08-17T10:42:34;27.80;19.60
1680;DHT22;838;51.794;12.258;2023-08-17T10:45:01;28.10;18.80
1680;DHT22;838;51.794;12.258;2023-08-17T10:47:30;28.40;15.00
1680;DHT22;838;51.794;12.258;2023-08-17T10:50:05;28.10;16.50
1680;DHT22;838;51.794;12.258;2023-08-17T10:52:34;27.40;18.90
1680;DHT22;838;51.794;12.258;2023-08-17T10:55:08;27.10;25.00
1680;DHT22;838;51.794;12.258;2023-08-17T10:57:41;27.40;26.30
1680;DHT22;838;51.794;12.258;2023-08-17T11:00:22;27.70;18.50
1680;DHT22;838;51.794;12.258;2023-08-17T11:03:17;28.40;15.20
1680;DHT22;838;51.794;12.258;2023-08-17T11:05:51;28.50;14.50
1680;DHT22;838;51.794;12.258;2023-08-17T11:08:37;28.80;9.10
1680;DHT22;838;51.794;12.258;2023-08-17T11:11:04;29.10;9.40
1680;DHT22;838;51.794;12.258;2023-08-17T11:13:35;29.50;9.20
1680;DHT22;838;51.794;12.258;2023-08-17T11:16:02;29.80;9.70
1680;DHT22;838;51.794;12.258;2023-08-17T11:18:28;29.50;4.60
1680;DHT22;838;51.794;12.258;2023-08-17T11:20:55;29.30;9.60
1680;DHT22;838;51.794;12.258;2023-08-17T11:23:22;29.50;8.70
1680;DHT22;838;51.794;12.258;2023-08-17T11:25:49;29.60;7.80
1680;DHT22;838;51.794;12.258;2023-08-17T11:28:16;29.80;6.30
1680;DHT22;838;51.794;12.258;2023-08-17T11:30:42;30.00;4.00
1680;DHT22;838;51.794;12.258;2023-08-17T11:33:09;29.80;3.10
1680;DHT22;838;51.794;12.258;2023-08-17T11:35:35;29.70;8.90
1680;DHT22;838;51.794;12.258;2023-08-17T11:38:02;29.30;5.00
1680;DHT22;838;51.794;12.258;2023-08-17T11:40:29;29.20;3.50
1680;DHT22;838;51.794;12.258;2023-08-17T11:42:55;29.30;1.10
1680;DHT22;838;51.794;12.258;2023-08-17T11:45:21;29.50;1.70
1680;DHT22;838;51.794;12.258;2023-08-17T11:47:48;29.60;2.30
1680;DHT22;838;51.794;12.258;2023-08-17T11:50:14;29.30;4.50
1680;DHT22;838;51.794;12.258;2023-08-17T11:52:40;29.40;5.70
1680;DHT22;838;51.794;12.258;2023-08-17T11:55:07;29.20;10.00
1680;DHT22;838;51.794;12.258;2023-08-17T11:57:35;29.60;8.80
1680;DHT22;838;51.794;12.258;2023-08-17T12:00:02;30.00;5.30
1680;DHT22;838;51.794;12.258;2023-08-17T12:02:30;30.00;7.50
1680;DHT22;838;51.794;12.258;2023-08-17T12:04:56;30.00;4.40
1680;DHT22;838;51.794;12.258;2023-08-17T12:07:24;29.50;6.90
1680;DHT22;838;51.794;12.258;2023-08-17T12:09:50;28.70;9.70
1680;DHT22;838;51.794;12.258;2023-08-17T12:12:21;28.50;10.60
1680;DHT22;838;51.794;12.258;2023-08-17T12:14:48;28.30;13.00
1680;DHT22;838;51.794;12.258;2023-08-17T12:17:18;28.30;13.80
1680;DHT22;838;51.794;12.258;2023-08-17T12:19:44;28.40;15.80
1680;DHT22;838;51.794;12.258;2023-08-17T12:22:13;28.80;12.60
1680;DHT22;838;51.794;12.258;2023-08-17T12:24:40;29.10;10.80
1680;DHT22;838;51.794;12.258;2023-08-17T12:27:06;29.40;8.70
1680;DHT22;838;51.794;12.258;2023-08-17T12:29:32;29.60;5.30
1680;DHT22;838;51.794;12.258;2023-08-17T12:32:00;29.60;6.70
1680;DHT22;838;51.794;12.258;2023-08-17T12:34:26;29.80;4.10
1680;DHT22;838;51.794;12.258;2023-08-17T12:36:52;30.10;2.90
1680;DHT22;838;51.794;12.258;2023-08-17T12:39:17;29.70;4.70
1680;DHT22;838;51.794;12.258;2023-08-17T12:41:43;30.00;4.90
1680;DHT22;838;51.794;12.258;2023-08-17T12:44:10;30.20;5.40
1680;DHT22;838;51.794;12.258;2023-08-17T12:46:39;30.20;1.00
1680;DHT22;838;51.794;12.258;2023-08-17T12:49:05;29.80;3.40
1680;DHT22;838;51.794;12.258;2023-08-17T12:51:31;29.50;2.60
1680;DHT22;838;51.794;12.258;2023-08-17T12:53:56;29.80;3.20
1680;DHT22;838;51.794;12.258;2023-08-17T12:56:22;29.90;5.70
1680;DHT22;838;51.794;12.258;2023-08-17T12:58:48;30.00;1.70
1680;DHT22;838;51.794;12.258;2023-08-17T13:01:14;29.60;1.10
1680;DHT22;838;51.794;12.258;2023-08-17T13:03:39;29.50;4.10
1680;DHT22;838;51.794;12.258;2023-08-17T13:06:05;29.00;6.10
1680;DHT22;838;51.794;12.258;2023-08-17T13:08:31;28.90;4.50
1680;DHT22;838;51.794;12.258;2023-08-17T13:10:57;28.90;7.40
1680;DHT22;838;51.794;12.258;2023-08-17T13:13:22;29.20;6.10
1680;DHT22;838;51.794;12.258;2023-08-17T13:15:48;29.30;4.30
1680;DHT22;838;51.794;12.258;2023-08-17T13:18:14;29.40;4.60
1680;DHT22;838;51.794;12.258;2023-08-17T13:20:39;29.70;3.70
1680;DHT22;838;51.794;12.258;2023-08-17T13:23:06;29.80;6.20
1680;DHT22;838;51.794;12.258;2023-08-17T13:25:31;29.80;4.70
1680;DHT22;838;51.794;12.258;2023-08-17T13:27:57;30.10;2.50
1680;DHT22;838;51.794;12.258;2023-08-17T13:30:23;30.40;4.60
1680;DHT22;838;51.794;12.258;2023-08-17T13:32:50;30.50;1.00
1680;DHT22;838;51.794;12.258;2023-08-17T13:35:16;29.80;6.00
1680;DHT22;838;51.794;12.258;2023-08-17T13:37:41;29.60;6.40
1680;DHT22;838;51.794;12.258;2023-08-17T13:40:07;29.20;3.70
1680;DHT22;838;51.794;12.258;2023-08-17T13:42:34;28.60;9.20
1680;DHT22;838;51.794;12.258;2023-08-17T13:45:00;28.30;11.40
1680;DHT22;838;51.794;12.258;2023-08-17T13:47:26;28.50;13.30
1680;DHT22;838;51.794;12.258;2023-08-17T13:49:52;28.80;13.80
1680;DHT22;838;51.794;12.258;2023-08-17T13:52:17;28.80;12.10
1680;DHT22;838;51.794;12.258;2023-08-17T13:54:43;28.60;12.30
1680;DHT22;838;51.794;12.258;2023-08-17T13:57:10;28.70;10.10
1680;DHT22;838;51.794;12.258;2023-08-17T13:59:36;29.20;7.30
1680;DHT22;838;51.794;12.258;2023-08-17T14:02:02;29.60;6.60
1680;DHT22;838;51.794;12.258;2023-08-17T14:04:27;29.80;6.50
1680;DHT22;838;51.794;12.258;2023-08-17T14:06:53;29.90;4.10
1680;DHT22;838;51.794;12.258;2023-08-17T14:09:19;29.50;5.00
1680;DHT22;838;51.794;12.258;2023-08-17T14:11:45;29.80;7.20
1680;DHT22;838;51.794;12.258;2023-08-17T14:14:10;30.10;5.30
1680;DHT22;838;51.794;12.258;2023-08-17T14:16:36;30.40;3.30
1680;DHT22;838;51.794;12.258;2023-08-17T14:19:02;30.20;1.00
1680;DHT22;838;51.794;12.258;2023-08-17T14:21:28;29.60;2.30
1680;DHT22;838;51.794;12.258;2023-08-17T14:23:53;29.70;2.40
1680;DHT22;838;51.794;12.258;2023-08-17T14:26:19;29.90;3.40
1680;DHT22;838;51.794;12.258;2023-08-17T14:28:45;30.20;3.70
1680;DHT22;838;51.794;12.258;2023-08-17T14:31:11;30.40;1.70
1680;DHT22;838;51.794;12.258;2023-08-17T14:33:43;30.60;1.60
1680;DHT22;838;51.794;12.258;2023-08-17T14:36:09;30.20;1.00
1680;DHT22;838;51.794;12.258;2023-08-17T14:38:35;30.20;2.00
1680;DHT22;838;51.794;12.258;2023-08-17T14:41:01;30.40;2.90
1680;DHT22;838;51.794;12.258;2023-08-17T14:43:30;30.70;1.00
1680;DHT22;838;51.794;12.258;2023-08-17T14:45:55;30.90;1.00
1680;DHT22;838;51.794;12.258;2023-08-17T14:48:21;31.10;1.00
1680;DHT22;838;51.794;12.258;2023-08-17T14:50:47;31.20;1.00
1680;DHT22;838;51.794;12.258;2023-08-17T14:53:12;30.80;1.00
1680;DHT22;838;51.794;12.258;2023-08-17T14:55:38;30.10;1.00
1680;DHT22;838;51.794;12.258;2023-08-17T14:58:04;30.00;1.00
1680;DHT22;838;51.794;12.258;2023-08-17T15:00:29;30.00;1.00
1680;DHT22;838;51.794;12.258;2023-08-17T15:02:56;29.70;2.50
1680;DHT22;838;51.794;12.258;2023-08-17T15:05:25;29.70;4.60
1680;DHT22;838;51.794;12.258;2023-08-17T15:07:51;29.60;3.90
1680;DHT22;838;51.794;12.258;2023-08-17T15:10:17;29.60;3.20
1680;DHT22;838;51.794;12.258;2023-08-17T15:12:43;29.70;3.30
1680;DHT22;838;51.794;12.258;2023-08-17T15:15:09;29.60;3.20
1680;DHT22;838;51.794;12.258;2023-08-17T15:17:35;29.50;4.30
1680;DHT22;838;51.794;12.258;2023-08-17T15:20:01;29.70;2.60
1680;DHT22;838;51.794;12.258;2023-08-17T15:22:26;29.70;2.70
1680;DHT22;838;51.794;12.258;2023-08-17T15:24:52;29.60;3.60
1680;DHT22;838;51.794;12.258;2023-08-17T15:27:18;29.80;5.20
1680;DHT22;838;51.794;12.258;2023-08-17T15:29:44;29.90;2.10
1680;DHT22;838;51.794;12.258;2023-08-17T15:32:10;29.70;3.90
1680;DHT22;838;51.794;12.258;2023-08-17T15:34:36;29.70;4.50
1680;DHT22;838;51.794;12.258;2023-08-17T15:37:02;29.80;3.40
1680;DHT22;838;51.794;12.258;2023-08-17T15:39:28;30.00;3.80
1680;DHT22;838;51.794;12.258;2023-08-17T15:41:54;30.00;4.90
1680;DHT22;838;51.794;12.258;2023-08-17T15:44:19;30.10;3.60
1680;DHT22;838;51.794;12.258;2023-08-17T15:46:45;30.00;2.90
1680;DHT22;838;51.794;12.258;2023-08-17T15:49:11;30.20;2.40
1680;DHT22;838;51.794;12.258;2023-08-17T15:51:39;30.30;2.00
1680;DHT22;838;51.794;12.258;2023-08-17T15:54:06;30.40;3.60
1680;DHT22;838;51.794;12.258;2023-08-17T15:56:32;30.40;2.10
1680;DHT22;838;51.794;12.258;2023-08-17T15:58:58;30.40;2.00
1680;DHT22;838;51.794;12.258;2023-08-17T16:01:24;30.40;3.50
1680;DHT22;838;51.794;12.258;2023-08-17T16:03:50;30.30;2.80
1680;DHT22;838;51.794;12.258;2023-08-17T16:06:15;30.40;2.50
1680;DHT22;838;51.794;12.258;2023-08-17T16:08:42;30.40;3.20
1680;DHT22;838;51.794;12.258;2023-08-17T16:11:08;30.30;2.70